Time;durP1;ratioP1;P1;durP2;ratioP2;P2;SDS_P1;SDS_P2;PMS_P1;PMS_P2;Temp;Humidity;BMP_temperature;BMP_pressure;BME280_temperature;BME280_humidity;BME280_pressure;Samples;Min_cycle;Max_cycle;Signal;HPM_P1;HPM_P2
2021/12/30 00:01:40;;;;;;;;;;;3.00;99.90;;;2.97;67.50;98337.81;4995097;28;19928;-80
2021/12/30 00:04:06;;;;;;;;;;;2.90;99.90;;;2.93;68.00;98335.88;5026343;28;19931;-80
2021/12/30 00:06:39;;;;;;;;;;;3.00;99.90;;;2.94;67.67;98332.13;5013411;28;20011;-80
2021/12/30 00:09:05;;;;;;;;;;;3.00;99.90;;;2.90;67.33;98329.13;5011936;28;19921;-80
2021/12/30 00:11:31;;;;;;;;;;;3.00;99.90;;;2.99;67.52;98335.72;5027738;28;20184;-80
2021/12/30 00:13:57;;;;;;;;;;;3.00;99.90;;;2.92;68.07;98331.53;5030704;28;19924;-80
2021/12/30 00:16:23;;;;;;;;;;;3.00;99.90;;;2.83;67.94;98331.91;5027156;28;19920;-80
2021/12/30 00:18:49;;;;;;;;;;;3.00;99.90;;;2.89;68.09;98345.41;5029147;28;19930;-80
2021/12/30 00:21:15;;;;;;;;;;;3.00;99.90;;;2.97;68.09;98345.06;5031074;28;20031;-80
2021/12/30 00:23:42;;;;;;;;;;;3.00;99.90;;;2.98;68.20;98350.19;4997512;28;19928;-80
2021/12/30 00:26:08;;;;;;;;;;;3.00;99.90;;;3.06;67.53;98359.72;5012991;28;19994;-80
2021/12/30 00:28:34;;;;;;;;;;;3.10;99.90;;;3.08;67.96;98356.78;5013866;28;19984;-79
2021/12/30 00:31:00;;;;;;;;;;;3.10;99.90;;;3.11;67.29;98354.47;5027646;28;19931;-80
2021/12/30 00:33:27;;;;;;;;;;;3.10;99.90;;;3.14;67.76;98350.50;5011650;28;19925;-80
2021/12/30 00:35:54;;;;;;;;;;;3.20;99.90;;;3.10;67.02;98358.19;4994633;28;19971;-80
2021/12/30 00:38:19;;;;;;;;;;;3.20;99.90;;;3.10;66.89;98365.41;5047855;28;19932;-80
2021/12/30 00:40:45;;;;;;;;;;;3.20;99.90;;;3.08;67.03;98362.16;5016966;28;20536;-80
2021/12/30 00:43:11;;;;;;;;;;;3.10;99.90;;;3.04;67.18;98370.66;5031481;28;20012;-80
2021/12/30 00:45:37;;;;;;;;;;;3.10;99.90;;;3.04;67.12;98364.50;5011596;28;19921;-80
2021/12/30 00:48:05;;;;;;;;;;;3.10;99.90;;;3.09;67.07;98355.75;5018775;28;19933;-80
2021/12/30 00:50:31;;;;;;;;;;;3.10;99.90;;;3.11;66.62;98359.84;4997506;28;20352;-80
2021/12/30 00:52:58;;;;;;;;;;;3.10;99.90;;;3.05;67.00;98366.13;5016499;28;19963;-80
2021/12/30 00:55:25;;;;;;;;;;;3.10;99.90;;;3.07;67.40;98357.84;5009728;28;19927;-80
2021/12/30 00:57:51;;;;;;;;;;;3.10;99.90;;;3.10;67.16;98366.22;5036723;28;19925;-80
2021/12/30 01:00:18;;;;;;;;;;;3.10;99.90;;;3.01;66.91;98367.66;4997167;28;19921;-80
2021/12/30 01:02:43;;;;;;;;;;;3.10;99.90;;;2.96;67.76;98362.19;4997285;28;20288;-80
2021/12/30 01:05:10;;;;;;;;;;;3.10;99.90;;;2.84;67.84;98375.59;5023271;28;19927;-80
2021/12/30 01:07:35;;;;;;;;;;;3.10;99.90;;;2.95;67.48;98371.25;4996512;28;20434;-80
2021/12/30 01:10:03;;;;;;;;;;;3.00;99.90;;;2.91;68.02;98378.16;5010677;28;19925;-80
2021/12/30 01:12:29;;;;;;;;;;;3.00;99.90;;;2.98;67.16;98381.53;5027963;28;19996;-80
2021/12/30 01:14:55;;;;;;;;;;;3.10;99.90;;;2.92;67.36;98374.41;5025930;28;19925;-80
2021/12/30 01:17:27;;;;;;;;;;;3.00;99.90;;;2.91;67.60;98373.59;5029235;28;20388;-80
2021/12/30 01:19:57;;;;;;;;;;;3.00;99.90;;;2.88;67.14;98376.75;5030386;28;19947;-80
2021/12/30 01:22:27;;;;;;;;;;;3.00;99.90;;;2.81;66.81;98374.19;5028053;28;19947;-80
2021/12/30 01:24:53;;;;;;;;;;;2.90;99.90;;;2.73;66.87;98377.22;5012923;28;19964;-80
2021/12/30 01:27:20;;;;;;;;;;;2.90;99.90;;;2.69;67.54;98376.03;5013086;28;20285;-80
2021/12/30 01:29:46;;;;;;;;;;;2.80;99.90;;;2.60;67.63;98372.91;5012919;28;19925;-80
2021/12/30 01:32:11;;;;;;;;;;;2.70;99.90;;;2.63;68.06;98368.97;5012897;28;19929;-80
2021/12/30 01:34:38;;;;;;;;;;;2.70;99.90;;;2.56;67.65;98374.41;5016472;28;19921;-80
2021/12/30 01:37:05;;;;;;;;;;;2.60;99.90;;;2.50;67.69;98382.56;5028529;28;19928;-80
2021/12/30 01:39:32;;;;;;;;;;;2.60;99.90;;;2.43;67.32;98379.19;5003444;28;19943;-80
2021/12/30 01:41:59;;;;;;;;;;;2.50;99.90;;;2.26;66.88;98384.38;4997476;28;19982;-80
2021/12/30 01:44:24;;;;;;;;;;;2.40;99.90;;;2.08;67.24;98399.47;5000431;28;19974;-79
2021/12/30 01:46:51;;;;;;;;;;;2.30;99.90;;;1.87;67.22;98395.44;5031917;28;19925;-79
2021/12/30 01:49:17;;;;;;;;;;;2.10;99.90;;;1.71;68.20;98398.78;5034738;28;20495;-80
2021/12/30 01:51:43;;;;;;;;;;;1.90;99.90;;;1.65;68.24;98394.31;4999215;28;19979;-79
2021/12/30 01:54:09;;;;;;;;;;;1.80;99.90;;;1.50;69.10;98392.88;5037730;28;19981;-79
2021/12/30 01:56:35;;;;;;;;;;;1.70;99.90;;;1.48;68.89;98392.28;5003477;28;19931;-80
2021/12/30 01:59:02;;;;;;;;;;;1.60;99.90;;;1.51;69.06;98383.78;5013793;28;19922;-79
2021/12/30 02:01:28;;;;;;;;;;;1.60;99.90;;;1.51;68.22;98389.13;5001668;28;19928;-79
2021/12/30 02:03:54;;;;;;;;;;;1.60;99.90;;;1.45;68.55;98390.06;5027666;28;20020;-79
2021/12/30 02:06:20;;;;;;;;;;;1.50;99.90;;;1.40;68.38;98384.56;5026260;28;19932;-79
2021/12/30 02:08:46;;;;;;;;;;;1.50;99.90;;;1.35;68.52;98372.88;5030277;28;19948;-80
2021/12/30 02:11:12;;;;;;;;;;;1.40;99.90;;;1.33;68.22;98380.34;5014446;28;19932;-79
2021/12/30 02:13:38;;;;;;;;;;;1.40;99.90;;;1.26;68.33;98381.22;5015172;28;19940;-79
2021/12/30 02:16:04;;;;;;;;;;;1.30;99.90;;;1.22;68.64;98373.88;5030588;28;19928;-79
2021/12/30 02:18:30;;;;;;;;;;;1.30;99.90;;;1.15;68.42;98373.16;4998991;28;19931;-80
2021/12/30 02:20:57;;;;;;;;;;;1.20;99.90;;;1.09;68.93;98366.81;5015423;28;19921;-79
2021/12/30 02:23:27;;;;;;;;;;;1.20;99.90;;;1.06;68.64;98376.09;5028260;28;19941;-80
2021/12/30 02:25:55;;;;;;;;;;;1.10;99.90;;;1.02;68.81;98376.78;5027857;28;20011;-79
2021/12/30 02:28:23;;;;;;;;;;;1.10;99.90;;;0.94;68.45;98385.06;5026298;28;19925;-80
2021/12/30 02:30:49;;;;;;;;;;;1.00;99.90;;;0.92;68.85;98392.50;5028553;28;19924;-80
2021/12/30 02:33:15;;;;;;;;;;;1.00;99.90;;;0.94;69.19;98404.59;5030720;28;19929;-80
2021/12/30 02:35:41;;;;;;;;;;;1.00;99.90;;;0.96;70.03;98407.03;5026653;28;20923;-80
2021/12/30 02:38:07;;;;;;;;;;;1.00;99.90;;;1.05;70.01;98395.03;5030675;28;19925;-80
2021/12/30 02:40:36;;;;;;;;;;;1.10;99.90;;;1.04;70.21;98388.03;5030019;28;19929;-80
2021/12/30 02:43:05;;;;;;;;;;;1.10;99.90;;;1.05;70.21;98387.84;5031902;28;19924;-80
2021/12/30 02:45:31;;;;;;;;;;;1.10;99.90;;;1.01;69.48;98386.63;4999986;28;19925;-80
2021/12/30 02:47:57;;;;;;;;;;;1.20;99.90;;;1.00;69.56;98386.88;5047569;28;19924;-80
2021/12/30 02:50:23;;;;;;;;;;;1.10;99.90;;;0.97;69.33;98387.31;5010878;28;20001;-80
2021/12/30 02:52:49;;;;;;;;;;;1.00;99.90;;;0.93;69.66;98384.25;5010775;28;19948;-80
2021/12/30 02:55:15;;;;;;;;;;;1.00;99.90;;;0.82;69.25;98380.47;5012231;28;19931;-80
2021/12/30 02:57:40;;;;;;;;;;;0.90;99.90;;;0.82;69.00;98391.16;5046156;28;20299;-79
2021/12/30 03:00:07;;;;;;;;;;;0.90;99.90;;;0.65;68.57;98380.22;5017603;28;19945;-79
2021/12/30 03:02:37;;;;;;;;;;;0.80;99.90;;;0.61;68.40;98389.72;5032802;28;19925;-79
2021/12/30 03:05:06;;;;;;;;;;;0.70;99.90;;;0.57;68.50;98377.84;5000261;28;19928;-79
2021/12/30 03:07:32;;;;;;;;;;;0.70;99.90;;;0.54;68.54;98388.13;5027055;28;19994;-79
2021/12/30 03:09:58;;;;;;;;;;;0.60;99.90;;;0.53;69.18;98387.31;5028631;28;19921;-79
2021/12/30 03:12:24;;;;;;;;;;;0.60;99.90;;;0.61;69.61;98387.03;4998065;28;19924;-79
2021/12/30 03:14:50;;;;;;;;;;;0.60;99.90;;;0.70;69.74;98384.91;5028593;28;19930;-79
2021/12/30 03:17:16;;;;;;;;;;;0.80;99.90;;;0.73;69.55;98386.31;5031597;28;19924;-80
2021/12/30 03:19:42;;;;;;;;;;;0.80;99.90;;;0.82;70.14;98391.16;5003288;28;19925;-80
2021/12/30 03:22:09;;;;;;;;;;;0.90;99.90;;;0.84;70.28;98406.94;5025022;28;20297;-80
2021/12/30 03:24:35;;;;;;;;;;;1.00;99.90;;;0.99;70.19;98404.75;4996102;28;19920;-80
2021/12/30 03:27:03;;;;;;;;;;;1.10;99.90;;;1.11;70.46;98406.69;5011055;28;19929;-80
2021/12/30 03:29:29;;;;;;;;;;;1.10;99.90;;;1.23;70.27;98407.59;5000200;28;19920;-80
2021/12/30 03:31:55;;;;;;;;;;;1.30;99.90;;;1.31;70.05;98415.28;5011012;28;19959;-80
2021/12/30 03:34:21;;;;;;;;;;;1.40;99.90;;;1.32;70.40;98416.09;5011916;28;19921;-80
2021/12/30 03:36:46;;;;;;;;;;;1.40;99.90;;;1.44;70.02;98423.16;5012820;28;19924;-80
2021/12/30 03:39:14;;;;;;;;;;;1.50;99.90;;;1.52;69.77;98430.84;5031868;28;19931;-80
2021/12/30 03:41:39;;;;;;;;;;;1.60;99.90;;;1.60;69.78;98437.75;5024420;28;20031;-80
2021/12/30 03:44:05;;;;;;;;;;;1.70;99.90;;;1.76;69.88;98435.53;5029076;28;20426;-80
2021/12/30 03:46:31;;;;;;;;;;;1.80;99.90;;;1.83;69.49;98447.78;5001479;28;19956;-79
2021/12/30 03:48:58;;;;;;;;;;;1.80;99.90;;;1.89;69.35;98444.19;5032585;28;19951;-79
2021/12/30 03:51:25;;;;;;;;;;;1.90;99.90;;;1.97;68.33;98451.09;5011871;28;19921;-80
2021/12/30 03:53:53;;;;;;;;;;;1.90;99.90;;;1.99;68.58;98442.84;5044325;28;20027;-79
2021/12/30 03:56:20;;;;;;;;;;;2.00;99.90;;;1.90;68.88;98453.84;5016128;28;20046;-79
2021/12/30 03:58:46;;;;;;;;;;;2.00;99.90;;;1.83;68.30;98460.31;5037695;28;19925;-80
2021/12/30 04:01:14;;;;;;;;;;;2.00;99.90;;;1.73;68.00;98455.50;5012353;28;19960;-79
2021/12/30 04:03:40;;;;;;;;;;;1.90;99.90;;;1.65;67.88;98442.44;5009455;28;19956;-79
2021/12/30 04:06:06;;;;;;;;;;;1.80;99.90;;;1.69;68.20;98448.97;5012157;28;20404;-79
2021/12/30 04:08:32;;;;;;;;;;;1.70;99.90;;;1.72;67.84;98449.34;5025670;28;21459;-79
2021/12/30 04:10:58;;;;;;;;;;;1.80;99.90;;;1.74;67.94;98451.78;5029471;28;19932;-79
2021/12/30 04:13:24;;;;;;;;;;;1.80;99.90;;;1.83;67.83;98452.28;5009338;28;19921;-79
2021/12/30 04:15:51;;;;;;;;;;;1.90;99.90;;;1.90;68.09;98456.50;5028085;28;19928;-79
2021/12/30 04:18:16;;;;;;;;;;;1.80;99.90;;;1.96;68.67;98462.84;5025480;28;20434;-79
2021/12/30 04:20:42;;;;;;;;;;;2.00;99.90;;;2.07;68.33;98454.03;5028510;28;19921;-80
2021/12/30 04:23:08;;;;;;;;;;;2.10;99.90;;;2.13;68.46;98454.97;5027149;28;20008;-79
2021/12/30 04:25:34;;;;;;;;;;;2.10;99.90;;;2.21;68.29;98461.88;5014733;28;19932;-79
2021/12/30 04:28:00;;;;;;;;;;;2.20;99.90;;;2.22;68.14;98464.31;5042958;28;19932;-80
2021/12/30 04:30:28;;;;;;;;;;;2.30;99.90;;;2.24;67.89;98469.44;5029283;28;19952;-79
2021/12/30 04:32:54;;;;;;;;;;;2.30;99.90;;;2.33;67.50;98470.75;5026173;28;19925;-80
2021/12/30 04:35:20;;;;;;;;;;;2.30;99.90;;;2.34;67.16;98472.38;4993502;28;19920;-79
2021/12/30 04:37:46;;;;;;;;;;;2.40;99.90;;;2.32;68.05;98475.28;5029695;28;20057;-79
2021/12/30 04:40:12;;;;;;;;;;;2.40;99.90;;;2.39;67.81;98476.03;5012021;28;19925;-79
2021/12/30 04:42:38;;;;;;;;;;;2.40;99.90;;;2.39;67.53;98477.84;5016058;28;19951;-79
2021/12/30 04:45:05;;;;;;;;;;;2.40;99.90;;;2.44;67.15;98493.25;5028756;28;20372;-79
2021/12/30 04:47:31;;;;;;;;;;;2.50;99.90;;;2.41;67.60;98488.34;5012536;28;20723;-80
2021/12/30 04:49:58;;;;;;;;;;;2.50;99.90;;;2.48;67.65;98489.88;5015347;28;19928;-79
2021/12/30 04:52:27;;;;;;;;;;;2.60;99.90;;;2.52;67.00;98498.25;5008229;28;19921;-80
2021/12/30 04:54:53;;;;;;;;;;;2.60;99.90;;;2.58;66.95;98497.38;5010193;28;19990;-79
2021/12/30 04:57:19;;;;;;;;;;;2.60;99.90;;;2.61;66.66;98504.94;5009047;28;19985;-80
2021/12/30 04:59:45;;;;;;;;;;;2.70;99.90;;;2.54;66.66;98507.69;5025148;28;20066;-80
2021/12/30 05:02:12;;;;;;;;;;;2.70;99.90;;;2.55;66.52;98511.22;5010258;28;19971;-80
2021/12/30 05:04:38;;;;;;;;;;;2.60;99.90;;;2.60;66.74;98514.03;5025812;28;20727;-80
2021/12/30 05:07:04;;;;;;;;;;;2.70;99.90;;;2.60;67.03;98512.16;4995257;28;19994;-79
2021/12/30 05:09:31;;;;;;;;;;;2.70;99.90;;;2.69;66.66;98517.19;5046215;28;19924;-80
2021/12/30 05:11:57;;;;;;;;;;;2.70;99.90;;;2.72;66.75;98520.22;5027817;28;19948;-79
2021/12/30 05:14:23;;;;;;;;;;;2.80;99.90;;;2.77;67.03;98509.66;5030724;28;20475;-80
2021/12/30 05:16:50;;;;;;;;;;;2.80;99.90;;;2.82;66.41;98501.75;5021663;28;19925;-79
2021/12/30 05:19:15;;;;;;;;;;;2.80;99.90;;;2.82;66.69;98507.09;5025147;28;19924;-80
2021/12/30 05:21:41;;;;;;;;;;;2.90;99.90;;;2.81;66.28;98500.09;5011026;28;20911;-79
2021/12/30 05:24:07;;;;;;;;;;;2.90;99.90;;;2.76;66.18;98501.81;4996862;28;19925;-80
2021/12/30 05:26:33;;;;;;;;;;;2.90;99.90;;;2.74;66.25;98494.00;5023502;28;19925;-80
2021/12/30 05:28:59;;;;;;;;;;;2.80;99.90;;;2.69;66.20;98490.41;5030033;28;20423;-80
2021/12/30 05:31:25;;;;;;;;;;;2.80;99.90;;;2.67;65.85;98495.16;4991618;28;19931;-80
2021/12/30 05:33:51;;;;;;;;;;;2.70;99.90;;;2.63;65.35;98488.66;5010986;28;19929;-80
2021/12/30 05:36:17;;;;;;;;;;;2.70;99.90;;;2.52;65.46;98477.69;5025085;28;20396;-80
2021/12/30 05:38:43;;;;;;;;;;;2.60;99.90;;;2.42;65.65;98480.09;5010725;28;19947;-80
2021/12/30 05:41:09;;;;;;;;;;;2.60;99.90;;;2.33;65.48;98489.50;5024620;28;20422;-80
2021/12/30 05:43:35;;;;;;;;;;;2.40;99.90;;;2.23;65.16;98500.75;5025144;28;19925;-80
2021/12/30 05:46:01;;;;;;;;;;;2.30;99.90;;;2.11;66.34;98515.91;5013267;28;20361;-79
2021/12/30 05:48:27;;;;;;;;;;;2.20;99.90;;;2.06;66.52;98516.63;5003838;28;19925;-82
2021/12/30 05:50:54;;;;;;;;;;;2.20;99.90;;;1.99;67.52;98525.78;4994042;28;19925;-82
2021/12/30 05:53:20;;;;;;;;;;;2.10;99.90;;;2.03;67.74;98513.56;5013278;28;19925;-82
2021/12/30 05:55:46;;;;;;;;;;;2.10;99.90;;;2.08;67.71;98509.16;5021124;28;19978;-82
2021/12/30 05:58:12;;;;;;;;;;;2.20;99.90;;;2.12;67.93;98506.88;4999761;28;20397;-82
2021/12/30 06:00:38;;;;;;;;;;;2.20;99.90;;;2.18;67.75;98504.09;5009840;28;19925;-82
2021/12/30 06:03:04;;;;;;;;;;;2.30;99.90;;;2.27;67.92;98498.44;5011726;28;19924;-82
2021/12/30 06:05:30;;;;;;;;;;;2.40;99.90;;;2.37;67.77;98518.25;5013199;28;20008;-82
2021/12/30 06:07:56;;;;;;;;;;;2.40;99.90;;;2.47;67.17;98519.56;5011002;28;20335;-82
2021/12/30 06:10:22;;;;;;;;;;;2.50;99.90;;;2.21;67.85;98524.22;5011982;28;19968;-82
2021/12/30 06:12:48;;;;;;;;;;;2.50;99.90;;;2.25;67.74;98528.09;5013395;28;19960;-82
2021/12/30 06:15:13;;;;;;;;;;;2.50;99.90;;;2.44;67.57;98538.75;5003470;28;20379;-82
2021/12/30 06:17:41;;;;;;;;;;;2.50;99.90;;;2.46;67.39;98540.16;5014496;28;19924;-82
2021/12/30 06:20:09;;;;;;;;;;;2.60;99.90;;;2.58;67.71;98534.84;5013942;28;19970;-82
2021/12/30 06:22:35;;;;;;;;;;;2.70;99.90;;;2.65;67.08;98538.25;5034601;28;20442;-82
2021/12/30 06:25:01;;;;;;;;;;;2.80;99.90;;;2.73;67.06;98542.47;5032408;28;19920;-82
2021/12/30 06:27:27;;;;;;;;;;;2.80;99.90;;;2.75;67.52;98549.22;4999920;28;19964;-82
2021/12/30 06:29:53;;;;;;;;;;;2.90;99.90;;;2.85;66.61;98554.03;5015628;28;19924;-82
2021/12/30 06:32:19;;;;;;;;;;;2.90;99.90;;;2.83;67.08;98556.13;5033658;28;20402;-82
2021/12/30 06:34:45;;;;;;;;;;;2.90;99.90;;;2.78;67.06;98556.81;5016734;28;19939;-82
2021/12/30 06:37:11;;;;;;;;;;;3.00;99.90;;;2.84;66.87;98565.78;5011951;28;19925;-82
2021/12/30 06:39:38;;;;;;;;;;;3.00;99.90;;;2.98;66.96;98561.06;5028429;28;20415;-82
2021/12/30 06:42:04;;;;;;;;;;;3.00;99.90;;;2.98;66.77;98561.88;5014277;28;19925;-82
2021/12/30 06:44:30;;;;;;;;;;;3.10;99.90;;;3.09;66.08;98576.31;5001021;28;19924;-82
2021/12/30 06:47:01;;;;;;;;;;;3.10;99.90;;;3.03;66.84;98575.38;4999375;28;19921;-82
2021/12/30 06:49:34;;;;;;;;;;;3.20;99.90;;;3.05;66.71;98577.81;4999007;28;19955;-82
2021/12/30 06:51:59;;;;;;;;;;;3.20;99.90;;;3.08;67.00;98584.59;4999127;28;19970;-82
2021/12/30 06:54:25;;;;;;;;;;;3.20;99.90;;;3.11;66.89;98584.94;5001590;28;19927;-82
2021/12/30 06:56:55;;;;;;;;;;;3.20;99.90;;;3.05;66.38;98591.22;5030657;28;19929;-81
2021/12/30 06:59:21;;;;;;;;;;;3.30;99.90;;;3.15;66.31;98586.09;5000459;28;19927;-82
2021/12/30 07:01:47;;;;;;;;;;;3.20;99.90;;;3.11;66.44;98571.56;5004769;28;19974;-82
2021/12/30 07:04:16;;;;;;;;;;;3.30;99.90;;;3.13;66.73;98571.31;5015346;28;19947;-82
2021/12/30 07:06:42;;;;;;;;;;;3.30;99.90;;;3.19;66.82;98575.75;5001435;28;20053;-82
2021/12/30 07:09:08;;;;;;;;;;;3.40;99.90;;;3.23;66.19;98571.56;5017107;28;19977;-81
2021/12/30 07:11:34;;;;;;;;;;;3.40;99.90;;;3.28;66.15;98569.00;5016069;28;19964;-82
2021/12/30 07:14:00;;;;;;;;;;;3.40;99.90;;;3.29;66.14;98567.97;5031076;28;19970;-82
2021/12/30 07:16:25;;;;;;;;;;;3.40;99.90;;;3.35;66.45;98568.88;5014532;28;19931;-84
2021/12/30 07:18:51;;;;;;;;;;;3.50;99.90;;;3.45;65.98;98569.13;5013520;28;19924;-83
2021/12/30 07:21:17;;;;;;;;;;;3.60;99.90;;;3.55;65.90;98569.34;5011741;28;19931;-83
2021/12/30 07:23:43;;;;;;;;;;;3.70;99.90;;;3.49;65.91;98570.31;4999328;28;19921;-83
2021/12/30 07:26:09;;;;;;;;;;;3.70;99.90;;;3.60;66.13;98569.47;4998941;28;20344;-83
2021/12/30 07:28:35;;;;;;;;;;;3.70;99.90;;;3.69;65.85;98570.75;4995454;28;19921;-83
2021/12/30 07:31:01;;;;;;;;;;;3.80;99.90;;;3.72;65.52;98564.13;5012323;28;19944;-84
2021/12/30 07:33:27;;;;;;;;;;;3.90;99.90;;;3.69;65.28;98575.31;5014434;28;19925;-83
2021/12/30 07:35:53;;;;;;;;;;;3.90;99.90;;;3.67;64.76;98578.22;5009446;28;19936;-83
2021/12/30 07:38:18;;;;;;;;;;;3.90;99.90;;;3.56;64.80;98583.59;5012692;28;19975;-83
2021/12/30 07:40:44;;;;;;;;;;;3.80;99.90;;;3.50;64.15;98588.00;5015825;28;19935;-83
2021/12/30 07:43:11;;;;;;;;;;;3.70;99.90;;;3.42;64.81;98589.19;5031571;28;19929;-83
2021/12/30 07:45:36;;;;;;;;;;;3.60;99.90;;;3.31;64.68;98586.47;5015483;28;19924;-83
2021/12/30 07:48:02;;;;;;;;;;;3.50;99.90;;;3.28;64.73;98597.66;5026001;28;19925;-83
2021/12/30 07:50:28;;;;;;;;;;;3.50;99.90;;;3.27;65.08;98599.53;5010706;28;19931;-83
2021/12/30 07:52:54;;;;;;;;;;;3.50;99.90;;;3.30;64.67;98604.44;5009145;28;19932;-83
2021/12/30 07:55:20;;;;;;;;;;;3.50;99.90;;;3.36;64.58;98603.53;4994479;28;20020;-83
2021/12/30 07:57:46;;;;;;;;;;;3.50;99.90;;;3.38;64.10;98616.69;5008900;28;19925;-83
2021/12/30 08:00:14;;;;;;;;;;;3.40;99.90;;;3.37;64.42;98612.38;5017023;28;19935;-83
2021/12/30 08:02:42;;;;;;;;;;;3.40;99.90;;;3.28;64.65;98617.25;5031293;28;20372;-83
2021/12/30 08:05:10;;;;;;;;;;;3.50;99.90;;;3.32;65.07;98612.25;5008780;28;19982;-83
2021/12/30 08:07:36;;;;;;;;;;;3.50;99.90;;;3.41;65.01;98618.91;5025302;28;20020;-83
2021/12/30 08:10:03;;;;;;;;;;;3.50;99.90;;;3.51;65.42;98621.84;5010871;28;19929;-83
2021/12/30 08:12:28;;;;;;;;;;;3.60;99.90;;;3.49;65.66;98613.22;5009160;28;19983;-83
2021/12/30 08:14:54;;;;;;;;;;;3.70;99.90;;;3.54;65.33;98602.59;5010860;28;19925;-83
2021/12/30 08:17:20;;;;;;;;;;;3.70;99.90;;;3.69;65.22;98597.59;5011129;28;19959;-83
2021/12/30 08:19:47;;;;;;;;;;;3.80;99.90;;;3.80;65.23;98595.13;4996934;28;19928;-83
2021/12/30 08:22:14;;;;;;;;;;;3.90;99.90;;;3.80;65.47;98592.44;4996103;28;19925;-83
2021/12/30 08:24:40;;;;;;;;;;;4.00;99.90;;;3.80;65.71;98587.09;5008046;28;19925;-84
2021/12/30 08:27:05;;;;;;;;;;;4.00;99.90;;;3.83;65.37;98587.41;5024135;28;19983;-84
2021/12/30 08:29:33;;;;;;;;;;;4.10;99.90;;;3.85;65.92;98589.88;5023312;28;19929;-84
2021/12/30 08:31:59;;;;;;;;;;;4.10;99.90;;;3.87;66.23;98579.72;5012421;28;19950;-84
2021/12/30 08:34:24;;;;;;;;;;;4.10;99.90;;;3.92;65.92;98594.06;5012771;28;19924;-84
2021/12/30 08:36:51;;;;;;;;;;;4.20;99.90;;;4.03;66.28;98588.91;5023092;28;20325;-84
2021/12/30 08:39:17;;;;;;;;;;;4.30;99.90;;;4.22;66.19;98603.81;5046165;28;20019;-84
2021/12/30 08:41:43;;;;;;;;;;;4.40;99.90;;;4.40;65.95;98608.22;4997344;28;19931;-84
2021/12/30 08:44:09;;;;;;;;;;;4.60;99.90;;;4.63;66.21;98601.13;5015502;28;19928;-84
2021/12/30 08:46:35;;;;;;;;;;;4.70;99.90;;;4.84;65.60;98605.00;4993538;28;20398;-84
2021/12/30 08:49:01;;;;;;;;;;;4.90;99.90;;;5.07;64.81;98596.81;4993742;28;19920;-84
2021/12/30 08:51:27;;;;;;;;;;;5.20;99.90;;;5.25;65.03;98597.66;5010590;28;19936;-84
2021/12/30 08:53:53;;;;;;;;;;;5.50;99.90;;;5.46;63.69;98599.59;5011194;28;20027;-84
2021/12/30 08:56:19;;;;;;;;;;;5.70;99.90;;;5.52;63.48;98606.72;5013655;28;20299;-84
2021/12/30 08:58:45;;;;;;;;;;;5.80;99.90;;;5.56;62.75;98605.13;5006722;28;19925;-84
2021/12/30 09:01:11;;;;;;;;;;;5.90;99.90;;;5.56;62.00;98605.13;4990879;28;20379;-82
2021/12/30 09:03:37;;;;;;;;;;;5.90;99.90;;;5.62;62.08;98608.72;5009270;28;19925;-82
2021/12/30 09:06:05;;;;;;;;;;;6.00;99.90;;;5.62;61.80;98606.88;5027023;28;19925;-83
2021/12/30 09:08:31;;;;;;;;;;;6.00;99.90;;;5.62;61.79;98612.25;5024767;28;20546;-83
2021/12/30 09:10:58;;;;;;;;;;;6.00;99.90;;;5.81;61.97;98617.34;5008788;28;19925;-81
2021/12/30 09:13:24;;;;;;;;;;;6.10;99.90;;;5.95;61.63;98615.16;5009501;28;19931;-83
2021/12/30 09:15:50;;;;;;;;;;;6.20;99.90;;;6.10;61.76;98620.75;5028673;28;19921;-83
2021/12/30 09:18:15;;;;;;;;;;;6.40;99.90;;;6.26;61.95;98617.22;5001177;28;19932;-81
2021/12/30 09:20:42;;;;;;;;;;;6.60;99.90;;;6.46;61.42;98629.28;5023874;28;19935;-82
2021/12/30 09:23:09;;;;;;;;;;;6.70;99.90;;;6.53;60.10;98619.94;5007893;28;20365;-81
2021/12/30 09:25:36;;;;;;;;;;;6.80;99.90;;;6.53;60.37;98629.91;5027081;28;19986;-85
2021/12/30 09:28:02;;;;;;;;;;;6.90;99.90;;;6.48;60.25;98621.75;5014749;28;19948;-83
2021/12/30 09:30:28;;;;;;;;;;;6.90;99.90;;;6.63;60.25;98619.25;5014369;28;19999;-83
2021/12/30 09:32:56;;;;;;;;;;;7.00;99.90;;;6.81;59.58;98620.78;5008798;28;19921;-83
2021/12/30 09:35:22;;;;;;;;;;;7.10;99.90;;;6.81;59.55;98626.19;5015300;28;19951;-83
2021/12/30 09:37:48;;;;;;;;;;;7.10;99.90;;;6.88;59.70;98620.59;4996722;28;20460;-84
2021/12/30 09:40:15;;;;;;;;;;;7.20;99.90;;;6.94;59.13;98617.69;4997801;28;19936;-84
2021/12/30 09:42:44;;;;;;;;;;;7.30;99.90;;;7.04;59.66;98616.97;5009384;28;19943;-84
2021/12/30 09:45:11;;;;;;;;;;;7.30;99.90;;;7.16;59.74;98623.03;5017380;28;19925;-84
2021/12/30 09:47:51;;;;;;;;;;;7.40;99.90;;;7.11;59.32;98612.19;4991925;28;19925;-84
2021/12/30 09:50:17;;;;;;;;;;;7.40;99.90;;;7.16;59.60;98609.56;4994218;28;20043;-84
2021/12/30 09:52:43;;;;;;;;;;;7.50;99.90;;;7.25;59.53;98603.69;5001314;28;20288;-84
2021/12/30 09:55:09;;;;;;;;;;;7.40;99.90;;;7.38;58.72;98605.97;5030551;28;19920;-84
2021/12/30 09:57:36;;;;;;;;;;;7.60;99.90;;;7.45;58.33;98608.44;5011284;28;19959;-84
2021/12/30 10:00:04;;;;;;;;;;;7.70;99.90;;;7.47;58.22;98603.59;5011305;28;19929;-84
2021/12/30 10:02:30;;;;;;;;;;;7.80;99.90;;;7.48;59.12;98602.53;5000406;28;20364;-84
2021/12/30 10:05:11;;;;;;;;;;;7.80;99.90;;;7.64;58.30;98598.88;5014900;28;19925;-84
2021/12/30 10:07:41;;;;;;;;;;;7.90;99.90;;;7.71;57.78;98602.16;5032518;28;19978;-84
2021/12/30 10:10:33;;;;;;;;;;;8.00;99.90;;;7.83;57.95;98601.97;5018814;28;19970;-84
2021/12/30 10:12:59;;;;;;;;;;;8.10;99.90;;;7.97;57.61;98605.03;4992423;28;19929;-84
2021/12/30 10:15:28;;;;;;;;;;;8.30;99.90;;;8.06;57.59;98598.03;5016445;28;20283;-84
2021/12/30 10:17:55;;;;;;;;;;;8.30;99.90;;;8.17;57.31;98597.03;4999258;28;20318;-84
2021/12/30 10:20:29;;;;;;;;;;;8.40;99.90;;;8.33;57.04;98607.91;4999168;28;20015;-83
2021/12/30 10:23:06;;;;;;;;;;;8.50;99.90;;;8.29;56.77;98613.00;5017956;28;19946;-83
2021/12/30 10:25:40;;;;;;;;;;;8.60;99.90;;;8.29;56.88;98618.41;5019938;28;19948;-83
2021/12/30 10:28:31;;;;;;;;;;;8.60;99.90;;;8.26;56.98;98606.25;5031738;28;20402;-83
2021/12/30 10:31:00;;;;;;;;;;;8.60;99.90;;;8.36;56.87;98605.47;5026254;28;19982;-83
2021/12/30 10:33:28;;;;;;;;;;;8.60;99.90;;;8.52;57.14;98610.97;5018635;28;19935;-83
2021/12/30 10:35:57;;;;;;;;;;;8.70;99.90;;;8.44;56.88;98605.00;4999449;28;19932;-83
2021/12/30 10:38:23;;;;;;;;;;;8.80;99.90;;;8.36;57.08;98608.19;5031990;28;19925;-83
2021/12/30 10:40:52;;;;;;;;;;;8.80;99.90;;;8.33;57.71;98603.31;5017052;28;20336;-83
2021/12/30 10:43:45;;;;;;;;;;;8.70;99.90;;;8.44;58.22;98605.00;4999599;28;19944;-83
2021/12/30 10:46:12;;;;;;;;;;;8.80;99.90;;;8.52;58.66;98600.16;5011630;28;19925;-83
2021/12/30 10:48:54;;;;;;;;;;;8.80;99.90;;;8.47;58.42;98592.84;5010169;28;19921;-83
2021/12/30 10:51:33;;;;;;;;;;;8.90;99.90;;;8.63;57.92;98602.66;5034410;28;19995;-83
2021/12/30 10:54:08;;;;;;;;;;;8.90;99.90;;;8.69;58.50;98598.06;5011787;28;19928;-83
2021/12/30 10:56:38;;;;;;;;;;;8.90;99.90;;;8.70;58.11;98591.56;5028487;28;20218;-83
2021/12/30 10:59:15;;;;;;;;;;;8.90;99.90;;;8.73;57.83;98601.88;5016409;28;19954;-83
2021/12/30 11:01:44;;;;;;;;;;;8.90;99.90;;;8.85;57.60;98593.50;5030749;28;20000;-83
2021/12/30 11:04:10;;;;;;;;;;;9.00;99.90;;;8.58;58.36;98607.25;4996389;28;19924;-82
2021/12/30 11:06:36;;;;;;;;;;;8.90;99.90;;;8.38;59.05;98608.75;5016037;28;19932;-82
2021/12/30 11:09:19;;;;;;;;;;;8.80;99.90;;;8.30;59.03;98611.97;4997949;28;20025;-83
2021/12/30 11:11:48;;;;;;;;;;;8.60;99.90;;;8.35;59.38;98613.88;5002169;28;19931;-83
2021/12/30 11:14:23;;;;;;;;;;;8.60;99.90;;;8.47;59.74;98612.59;5011801;28;20373;-82
2021/12/30 11:17:06;;;;;;;;;;;8.50;99.90;;;8.34;58.99;98610.34;5025095;28;19928;-82
2021/12/30 11:19:39;;;;;;;;;;;8.60;99.90;;;8.39;59.83;98613.09;5014475;28;19928;-83
2021/12/30 11:22:16;;;;;;;;;;;8.60;99.90;;;8.47;59.51;98611.78;5023741;28;19967;-83
2021/12/30 11:24:43;;;;;;;;;;;8.70;99.90;;;8.56;59.77;98606.69;5017604;28;19929;-83
2021/12/30 11:27:10;;;;;;;;;;;8.70;99.90;;;8.73;59.58;98615.41;4996605;28;19925;-83
2021/12/30 11:29:40;;;;;;;;;;;8.90;99.90;;;8.76;59.00;98614.88;5010840;28;19920;-83
2021/12/30 11:32:07;;;;;;;;;;;8.90;99.90;;;8.68;59.52;98609.97;4999340;28;19921;-83
2021/12/30 11:34:32;;;;;;;;;;;8.90;99.90;;;8.75;59.40;98604.28;5018932;28;20387;-83